Date,TemperatureHighF,TemperatureAvgF,TemperatureLowF,DewpointHighF,DewpointAvgF,DewpointLowF,HumidityHigh,HumidityAvg,HumidityLow,PressureMaxIn,PressureMinIn,WindSpeedMaxMPH,WindSpeedAvgMPH,GustSpeedMaxMPH,PrecipitationSumIn
2013-6-1,88.0,73.0,60.0,74.0,63.9,58.0,94,76,46,0.00,40.00,6,2,11,0.07
2013-6-2,83.0,69.4,63.0,70.0,64.1,-99.9,94,85,57,0.00,40.00,5,2,10,0.26
2013-6-3,83.0,70.4,62.0,70.0,63.9,59.0,95,81,53,0.00,40.00,5,1,11,0.21
2013-6-4,81.0,68.7,57.0,61.0,58.1,51.0,96,72,37,0.00,40.00,5,2,11,0.02
2013-6-5,77.0,68.4,59.0,63.0,60.2,56.0,94,76,59,0.00,40.00,5,2,11,0.06
2013-6-6,68.0,62.7,61.0,63.0,61.2,58.0,95,92,70,0.00,40.00,8,3,14,1.48
2013-6-7,75.0,68.2,63.0,69.0,64.8,62.0,95,89,75,0.00,40.00,8,3,12,0.30
2013-6-8,82.0,68.5,60.0,65.0,61.1,56.0,95,77,44,0.00,40.00,4,2,8,0.40
2013-6-9,85.0,72.8,62.0,71.0,63.9,60.0,95,76,49,0.00,40.00,6,2,17,0.18
2013-6-10,82.0,70.6,66.0,71.0,67.1,63.0,95,89,64,0.00,40.00,10,2,24,0.72
2013-6-11,81.0,71.1,63.0,68.0,63.5,61.0,95,79,51,0.00,40.00,9,3,16,0.52
2013-6-12,89.0,74.0,62.0,74.0,67.1,60.0,95,77,53,0.00,40.00,6,2,11,0.02
2013-6-13,86.0,70.7,62.0,73.0,67.0,60.0,95,85,59,0.00,40.00,8,3,20,0.70
2013-6-14,77.0,67.2,57.0,61.0,56.2,53.0,93,70,43,0.00,40.00,5,2,14,0.01
2013-6-15,82.0,66.7,54.0,62.0,56.9,52.0,95,72,35,0.00,40.00,4,2,9,0.00
2013-6-16,85.0,69.3,57.0,69.0,62.5,56.0,95,79,51,0.00,40.00,6,2,12,0.13
2013-6-17,87.0,72.7,66.0,70.0,66.6,65.0,95,81,49,0.00,40.00,5,2,9,0.57
2013-6-18,72.0,68.5,63.0,69.0,66.2,61.0,95,93,83,0.00,40.00,4,1,8,0.83
2013-6-19,82.0,66.6,59.0,67.0,62.1,58.0,95,84,52,0.00,40.00,7,3,13,0.01
2013-6-20,81.0,70.2,64.0,65.0,63.2,62.0,95,81,55,0.00,40.00,5,2,10,0.00
2013-6-22,85.0,77.2,71.0,67.0,64.5,62.0,82,61,47,0.00,40.00,5,3,9,0.00
2013-6-23,89.0,77.4,66.0,70.0,65.9,63.0,94,70,42,0.00,40.00,4,2,8,0.00
2013-6-24,89.0,75.3,66.0,71.0,67.3,65.0,94,78,46,0.00,40.00,4,2,13,0.00
2013-6-25,88.0,75.0,66.0,71.0,67.8,64.0,94,77,52,0.00,40.00,4,2,10,0.00
2013-6-26,90.0,73.9,66.0,72.0,67.8,65.0,94,83,48,0.00,40.00,6,2,12,0.17
2013-6-27,81.0,71.7,66.0,72.0,67.5,65.0,95,87,69,0.00,40.00,6,2,11,0.15
2013-6-28,89.0,75.5,66.0,71.0,65.6,61.0,94,75,41,0.00,40.00,11,4,20,0.06
2013-6-29,85.0,72.7,61.0,68.0,63.6,60.0,94,75,49,0.00,40.00,6,2,13,0.05
2013-6-30,86.0,74.2,66.0,71.0,67.0,64.0,95,80,53,0.00,40.00,6,2,13,0.24